Harbor Emperor — WCY6430 — position and weather

sailwx.info

Track history (hours):
 
Tides and Currents Weather Stations Pressure Air Temp Water Temp Dewpoint Dewpoint Depression Visibility Wind Speed Wind Dir Waves Ship Positions

Harbor Emperor

Owner: BLUE & GOLD FLEET, SAN FRANCISCO, CA. More information available from US FCC via Universal Licensing System and Coast Guard Vessel Documentation Center.

Last reported at 2015-Oct-26 17:12 UTC. Time now 2016-Feb-10 20:09 UTC.
Position N 38°07' W 122°17'.
Warning: this ship's position is months out of date.

Length 31 m.

Type: Passenger vessel. MMSI: 366985270.

Date/timePositionNaut miles runAvg speedWind from/ knotsBaromVisibWave heightAir tempDewpointWater temp
2015-Oct-26 17:12N 38°07' W 122°17'4 5.5
2015-Oct-26 16:31N 38°03' W 122°18'1111.2
2015-Oct-26 15:33N 37°54' W 122°25'5 4.8
2015-Oct-26 14:29N 37°49' W 122°25'0 0.0
2015-Oct-26 13:32N 37°49' W 122°25'0 0.0
2015-Oct-26 12:32N 37°49' W 122°25'0 0.0
2015-Oct-26 11:32N 37°49' W 122°25'0 0.0
2015-Oct-26 10:32N 37°49' W 122°25'0 0.0
2015-Oct-26 09:29N 37°49' W 122°25'0 0.0
2015-Oct-26 08:32N 37°49' W 122°25'0 0.0
2015-Oct-26 07:32N 37°49' W 122°25'0 0.0
2015-Oct-26 06:32N 37°49' W 122°25'0 0.0
2015-Oct-26 05:32N 37°49' W 122°25'0 0.0
2015-Oct-26 04:32N 37°49' W 122°25'0 0.0
2015-Oct-26 03:29N 37°49' W 122°25'0 0.0
2015-Oct-26 02:29N 37°49' W 122°25'0 0.0
2015-Oct-26 01:29N 37°49' W 122°25'0 0.0
2015-Oct-26 00:32N 37°49' W 122°25'0 0.1
2015-Oct-25 23:33N 37°49' W 122°25'3 3.2
2015-Oct-25 22:33N 37°49' W 122°29'3 3.3
2015-Oct-25 21:33N 37°49' W 122°25'3 3.4
2015-Oct-25 20:34N 37°49' W 122°29'4 4.3
2015-Oct-25 19:33N 37°48' W 122°23'1 1.0
2015-Oct-25 18:34N 37°49' W 122°25'3 2.8
2015-Oct-25 17:33N 37°49' W 122°28'3 2.9
2015-Oct-25 16:33N 37°49' W 122°25'0 0.0
2015-Oct-25 15:33N 37°49' W 122°25'0 0.0
2015-Oct-25 14:33N 37°49' W 122°25'0 0.0
2015-Oct-25 13:33N 37°49' W 122°25'0 0.0
2015-Oct-25 12:33N 37°49' W 122°25'0 0.0
2015-Oct-25 11:33N 37°49' W 122°25'0 0.0
2015-Oct-25 10:33N 37°49' W 122°25'0 0.0
2015-Oct-25 09:33N 37°49' W 122°25'0 0.0
2015-Oct-25 08:33N 37°49' W 122°25'0 0.0
2015-Oct-25 07:33N 37°49' W 122°25'0 0.0
2015-Oct-25 06:34N 37°49' W 122°25'0 0.0
2015-Oct-25 05:33N 37°49' W 122°25'0 0.0
2015-Oct-25 04:33N 37°49' W 122°25'0 0.0
2015-Oct-25 03:33N 37°49' W 122°25'0 0.0
2015-Oct-25 02:33N 37°49' W 122°25'0 0.0
2015-Oct-25 01:33N 37°49' W 122°25'0 0.0
2015-Oct-25 00:34N 37°49' W 122°25'0 0.0
2015-Oct-24 23:34N 37°49' W 122°25'3 2.6
2015-Oct-24 22:34N 37°49' W 122°28'3 2.6
2015-Oct-24 21:33N 37°49' W 122°25'3 2.7
2015-Oct-24 20:33N 37°49' W 122°28'3 2.7
2015-Oct-24 19:33N 37°49' W 122°25'1 0.9
2015-Oct-24 18:34N 37°49' W 122°25'2 2.4
2015-Oct-24 17:33N 37°49' W 122°28'2 2.4
2015-Oct-24 16:34N 37°49' W 122°25'0 0.0
2015-Oct-24 15:33N 37°49' W 122°25'0 0.0
2015-Oct-24 14:33N 37°49' W 122°25'0 0.0
2015-Oct-24 13:34N 37°49' W 122°25'0 0.0
2015-Oct-24 12:34N 37°49' W 122°25'0 0.0
2015-Oct-24 11:33N 37°49' W 122°25'0 0.0
2015-Oct-24 10:33N 37°49' W 122°25'0 0.0
2015-Oct-24 09:34N 37°49' W 122°25'0 0.0
2015-Oct-24 08:34N 37°49' W 122°25'0 0.0
2015-Oct-24 07:33N 37°49' W 122°25'0 0.0
2015-Oct-24 06:34N 37°49' W 122°25'0 0.0
2015-Oct-24 05:34N 37°49' W 122°25'0 0.0
2015-Oct-24 04:34N 37°49' W 122°25'0 0.0
2015-Oct-24 03:34N 37°49' W 122°25'0 0.0
2015-Oct-24 02:33N 37°49' W 122°25'0 0.0
2015-Oct-24 01:34N 37°49' W 122°25'0 0.0
2015-Oct-24 00:33N 37°49' W 122°25'0 0.2
2015-Oct-23 23:34N 37°49' W 122°25'3 2.7
2015-Oct-23 22:33N 37°49' W 122°28'3 2.8
2015-Oct-23 21:33N 37°49' W 122°25'3 3.2
2015-Oct-23 20:33N 37°49' W 122°29'4 3.8
2015-Oct-23 19:33N 37°49' W 122°24'1 0.7
2015-Oct-23 18:33N 37°49' W 122°25'3 2.7
2015-Oct-23 17:33N 37°49' W 122°28'3 2.8
2015-Oct-23 16:33N 37°49' W 122°25'0 0.0
2015-Oct-23 15:33N 37°49' W 122°25'0 0.0
2015-Oct-23 14:33N 37°49' W 122°25'0 0.0
2015-Oct-23 13:33N 37°49' W 122°25'0 0.0
2015-Oct-23 12:33N 37°49' W 122°25'0 0.0
2015-Oct-23 11:33N 37°49' W 122°25'0 0.0
2015-Oct-23 10:33N 37°49' W 122°25'0 0.0
2015-Oct-23 09:33N 37°49' W 122°25'0 0.0
2015-Oct-23 08:33N 37°49' W 122°25'0 0.0
2015-Oct-23 07:33N 37°49' W 122°25'0 0.0
2015-Oct-23 06:33N 37°49' W 122°25'0 0.0
2015-Oct-23 05:33N 37°49' W 122°25'0 0.0
2015-Oct-23 04:33N 37°49' W 122°25'0 0.0
2015-Oct-23 03:33N 37°49' W 122°25'0 0.0
2015-Oct-23 02:33N 37°49' W 122°25'0 0.0
2015-Oct-23 01:33N 37°49' W 122°25'0 0.0
2015-Oct-23 00:33N 37°49' W 122°25'0 0.0
2015-Oct-22 23:34N 37°49' W 122°25'3 2.8
2015-Oct-22 22:34N 37°49' W 122°28'3 2.8
2015-Oct-22 21:34N 37°49' W 122°25'3 3.2
2015-Oct-22 20:34N 37°49' W 122°29'3 2.8
2015-Oct-22 19:34N 37°50' W 122°25'1 1.1
2015-Oct-22 18:33N 37°49' W 122°25'3 3.2
2015-Oct-22 17:34N 37°49' W 122°29'3 3.1
2015-Oct-22 16:32N 37°49' W 122°25'0 0.0
2015-Oct-22 15:33N 37°49' W 122°25'0 0.0
2015-Oct-22 14:32N 37°49' W 122°25'0 0.0
2015-Oct-22 13:32N 37°49' W 122°25'0 0.0
2015-Oct-22 12:32N 37°49' W 122°25'0 0.0
2015-Oct-22 11:32N 37°49' W 122°25'0 0.0
2015-Oct-22 10:32N 37°49' W 122°25'0 0.0
2015-Oct-22 09:32N 37°49' W 122°25'0 0.0
2015-Oct-22 08:32N 37°49' W 122°25'0 0.0
2015-Oct-22 07:32N 37°49' W 122°25'0 0.0
2015-Oct-22 06:32N 37°49' W 122°25'0 0.0
2015-Oct-22 05:32N 37°49' W 122°25'0 0.0
2015-Oct-22 04:32N 37°49' W 122°25'0 0.0
2015-Oct-22 03:32N 37°49' W 122°25'0 0.0
2015-Oct-22 02:32N 37°49' W 122°25'0 0.0
2015-Oct-22 01:29N 37°49' W 122°25'0 0.0
2015-Oct-22 00:32N 37°49' W 122°25'0 0.2
2015-Oct-21 23:34N 37°49' W 122°25'3 2.5
2015-Oct-21 22:33N 37°49' W 122°28'3 2.5
2015-Oct-21 21:33N 37°49' W 122°25'3 2.7
2015-Oct-21 20:33N 37°49' W 122°28'4 3.7
2015-Oct-21 19:33N 37°49' W 122°23'1 1.0
2015-Oct-21 18:33N 37°49' W 122°25'3 2.7
2015-Oct-21 17:33N 37°49' W 122°28'3 0.1
2015-Oct-19 20:29N 37°49' W 122°25'3 3.1
2015-Oct-19 19:33N 37°51' W 122°27'1 1.4
2015-Oct-19 18:33N 37°51' W 122°29'4 4.2
2015-Oct-19 17:33N 37°49' W 122°25'0 0.0
2015-Oct-19 16:33N 37°49' W 122°25'0 0.0
2015-Oct-19 15:30N 37°49' W 122°25'0 0.0
2015-Oct-19 14:29N 37°49' W 122°25'0 0.0
2015-Oct-19 13:32N 37°49' W 122°25'0 0.0
2015-Oct-19 12:33N 37°49' W 122°25'0 0.0
2015-Oct-19 11:32N 37°49' W 122°25'0 0.0
2015-Oct-19 10:30N 37°49' W 122°25'0 0.0
2015-Oct-19 09:33N 37°49' W 122°25'0 0.0
2015-Oct-19 08:33N 37°49' W 122°25'0 0.0
2015-Oct-19 07:32N 37°49' W 122°25'0 0.0
2015-Oct-19 06:32N 37°49' W 122°25'0 0.0
2015-Oct-19 05:29N 37°49' W 122°25'0 0.0
2015-Oct-19 04:29N 37°49' W 122°25'0 0.0
2015-Oct-19 03:29N 37°49' W 122°25'0 0.0
2015-Oct-19 02:32N 37°49' W 122°25'0 0.0
2015-Oct-19 01:32N 37°49' W 122°25'0 0.0
2015-Oct-19 00:32N 37°49' W 122°25'0 0.1
2015-Oct-18 23:33N 37°49' W 122°25'3 2.8
2015-Oct-18 22:33N 37°49' W 122°28'3 2.8
2015-Oct-18 21:31N 37°49' W 122°25'2 2.6
2015-Oct-18 20:33N 37°49' W 122°28'4 3.6
2015-Oct-18 19:33N 37°48' W 122°23'1 1.2
2015-Oct-18 18:33N 37°49' W 122°25'3 2.7
2015-Oct-18 17:33N 37°49' W 122°28'3 2.5
2015-Oct-18 16:27N 37°49' W 122°25'0 0.0
2015-Oct-18 15:30N 37°49' W 122°25'0 0.0
2015-Oct-18 14:33N 37°49' W 122°25'0 0.0
2015-Oct-18 13:33N 37°49' W 122°25'0 0.0
2015-Oct-18 12:33N 37°49' W 122°25'0 0.0
2015-Oct-18 11:33N 37°49' W 122°25'0 0.0
2015-Oct-18 10:33N 37°49' W 122°25'0 0.0
2015-Oct-18 09:33N 37°49' W 122°25'0 0.0
2015-Oct-18 08:33N 37°49' W 122°25'0 0.0
2015-Oct-18 07:30N 37°49' W 122°25'1 0.9
2015-Oct-18 06:33N 37°48' W 122°24'1 1.2
2015-Oct-18 05:34N 37°49' W 122°23'4 4.4
2015-Oct-18 04:33N 37°50' W 122°28'3 2.9
2015-Oct-18 03:33N 37°49' W 122°25'0 0.0
2015-Oct-18 02:33N 37°49' W 122°25'0 0.0
2015-Oct-18 01:34N 37°49' W 122°25'0 0.0
2015-Oct-18 00:33N 37°49' W 122°25'0 0.1
2015-Oct-17 23:33N 37°49' W 122°25'3 2.6
2015-Oct-17 22:34N 37°49' W 122°28'3 2.7
2015-Oct-17 21:33N 37°49' W 122°25'2 2.2
2015-Oct-17 20:33N 37°49' W 122°27'3 2.6
2015-Oct-17 19:33N 37°49' W 122°24'1 0.7
2015-Oct-17 18:33N 37°49' W 122°25'2 2.2
2015-Oct-17 17:33N 37°49' W 122°27'2 2.3
2015-Oct-17 16:34N 37°49' W 122°25'0 0.0
2015-Oct-17 15:34N 37°49' W 122°25'0 0.0
2015-Oct-17 14:33N 37°49' W 122°25'0 0.0
2015-Oct-17 13:34N 37°49' W 122°25'0 0.0
2015-Oct-17 12:34N 37°49' W 122°25'0 0.0
2015-Oct-17 11:34N 37°49' W 122°25'0 0.0
2015-Oct-17 10:34N 37°49' W 122°25'0 0.0
2015-Oct-17 09:33N 37°49' W 122°25'0 0.0
2015-Oct-17 08:34N 37°49' W 122°25'0 0.0
2015-Oct-17 07:34N 37°49' W 122°25'0 0.0
2015-Oct-17 06:33N 37°49' W 122°25'0 0.0
2015-Oct-17 05:34N 37°49' W 122°25'0 0.0
2015-Oct-17 04:34N 37°49' W 122°25'0 0.0
2015-Oct-17 03:34N 37°49' W 122°25'0 0.0
2015-Oct-17 02:34N 37°49' W 122°25'0 0.0
2015-Oct-17 01:33N 37°49' W 122°25'0 0.0
2015-Oct-17 00:34N 37°49' W 122°25'0 0.1
2015-Oct-16 23:34N 37°49' W 122°25'3 3.2
2015-Oct-16 22:34N 37°49' W 122°29'3 3.2
2015-Oct-16 21:33N 37°49' W 122°25'3 2.7
2015-Oct-16 20:33N 37°49' W 122°28'4 3.5
2015-Oct-16 19:34N 37°49' W 122°24'1 0.9
2015-Oct-16 18:33N 37°49' W 122°25'3 2.5
2015-Oct-16 17:33N 37°49' W 122°28'  
Track history (hours):
 
Tides and Currents Weather Stations Pressure Air Temp Water Temp Dewpoint Dewpoint Depression Visibility Wind Speed Wind Dir Waves Ship Positions

Harbor Emperor

Owner: BLUE & GOLD FLEET, SAN FRANCISCO, CA. More information available from US FCC via Universal Licensing System and Coast Guard Vessel Documentation Center.

Last reported at 2015-Oct-26 17:12 UTC. Time now 2016-Feb-10 20:09 UTC.
Position N 38°07' W 122°17'.
Warning: this ship's position is months out of date.

Length 31 m.

Type: Passenger vessel. MMSI: 366985270.

Date/timePositionNaut miles runAvg speedWind from/ knotsBaromVisibWave heightAir tempDewpointWater temp
2015-Oct-26 17:12N 38°07' W 122°17'4 5.5
2015-Oct-26 16:31N 38°03' W 122°18'1111.2
2015-Oct-26 15:33N 37°54' W 122°25'5 4.8
2015-Oct-26 14:29N 37°49' W 122°25'0 0.0
2015-Oct-26 13:32N 37°49' W 122°25'0 0.0
2015-Oct-26 12:32N 37°49' W 122°25'0 0.0
2015-Oct-26 11:32N 37°49' W 122°25'0 0.0
2015-Oct-26 10:32N 37°49' W 122°25'0 0.0
2015-Oct-26 09:29N 37°49' W 122°25'0 0.0
2015-Oct-26 08:32N 37°49' W 122°25'0 0.0
2015-Oct-26 07:32N 37°49' W 122°25'0 0.0
2015-Oct-26 06:32N 37°49' W 122°25'0 0.0
2015-Oct-26 05:32N 37°49' W 122°25'0 0.0
2015-Oct-26 04:32N 37°49' W 122°25'0 0.0
2015-Oct-26 03:29N 37°49' W 122°25'0 0.0
2015-Oct-26 02:29N 37°49' W 122°25'0 0.0
2015-Oct-26 01:29N 37°49' W 122°25'0 0.0
2015-Oct-26 00:32N 37°49' W 122°25'0 0.1
2015-Oct-25 23:33N 37°49' W 122°25'3 3.2
2015-Oct-25 22:33N 37°49' W 122°29'3 3.3
2015-Oct-25 21:33N 37°49' W 122°25'3 3.4
2015-Oct-25 20:34N 37°49' W 122°29'4 4.3
2015-Oct-25 19:33N 37°48' W 122°23'1 1.0
2015-Oct-25 18:34N 37°49' W 122°25'3 2.8
2015-Oct-25 17:33N 37°49' W 122°28'3 2.9
2015-Oct-25 16:33N 37°49' W 122°25'0 0.0
2015-Oct-25 15:33N 37°49' W 122°25'0 0.0
2015-Oct-25 14:33N 37°49' W 122°25'0 0.0
2015-Oct-25 13:33N 37°49' W 122°25'0 0.0
2015-Oct-25 12:33N 37°49' W 122°25'0 0.0
2015-Oct-25 11:33N 37°49' W 122°25'0 0.0
2015-Oct-25 10:33N 37°49' W 122°25'0 0.0
2015-Oct-25 09:33N 37°49' W 122°25'0 0.0
2015-Oct-25 08:33N 37°49' W 122°25'0 0.0
2015-Oct-25 07:33N 37°49' W 122°25'0 0.0
2015-Oct-25 06:34N 37°49' W 122°25'0 0.0
2015-Oct-25 05:33N 37°49' W 122°25'0 0.0
2015-Oct-25 04:33N 37°49' W 122°25'0 0.0
2015-Oct-25 03:33N 37°49' W 122°25'0 0.0
2015-Oct-25 02:33N 37°49' W 122°25'0 0.0
2015-Oct-25 01:33N 37°49' W 122°25'0 0.0
2015-Oct-25 00:34N 37°49' W 122°25'0 0.0
2015-Oct-24 23:34N 37°49' W 122°25'3 2.6
2015-Oct-24 22:34N 37°49' W 122°28'3 2.6
2015-Oct-24 21:33N 37°49' W 122°25'3 2.7
2015-Oct-24 20:33N 37°49' W 122°28'3 2.7
2015-Oct-24 19:33N 37°49' W 122°25'1 0.9
2015-Oct-24 18:34N 37°49' W 122°25'2 2.4
2015-Oct-24 17:33N 37°49' W 122°28'2 2.4
2015-Oct-24 16:34N 37°49' W 122°25'0 0.0
2015-Oct-24 15:33N 37°49' W 122°25'0 0.0
2015-Oct-24 14:33N 37°49' W 122°25'0 0.0
2015-Oct-24 13:34N 37°49' W 122°25'0 0.0
2015-Oct-24 12:34N 37°49' W 122°25'0 0.0
2015-Oct-24 11:33N 37°49' W 122°25'0 0.0
2015-Oct-24 10:33N 37°49' W 122°25'0 0.0
2015-Oct-24 09:34N 37°49' W 122°25'0 0.0
2015-Oct-24 08:34N 37°49' W 122°25'0 0.0
2015-Oct-24 07:33N 37°49' W 122°25'0 0.0
2015-Oct-24 06:34N 37°49' W 122°25'0 0.0
2015-Oct-24 05:34N 37°49' W 122°25'0 0.0
2015-Oct-24 04:34N 37°49' W 122°25'0 0.0
2015-Oct-24 03:34N 37°49' W 122°25'0 0.0
2015-Oct-24 02:33N 37°49' W 122°25'0 0.0
2015-Oct-24 01:34N 37°49' W 122°25'0 0.0
2015-Oct-24 00:33N 37°49' W 122°25'0 0.2
2015-Oct-23 23:34N 37°49' W 122°25'3 2.7
2015-Oct-23 22:33N 37°49' W 122°28'3 2.8
2015-Oct-23 21:33N 37°49' W 122°25'3 3.2
2015-Oct-23 20:33N 37°49' W 122°29'4 3.8
2015-Oct-23 19:33N 37°49' W 122°24'1 0.7
2015-Oct-23 18:33N 37°49' W 122°25'3 2.7
2015-Oct-23 17:33N 37°49' W 122°28'3 2.8
2015-Oct-23 16:33N 37°49' W 122°25'0 0.0
2015-Oct-23 15:33N 37°49' W 122°25'0 0.0
2015-Oct-23 14:33N 37°49' W 122°25'0 0.0
2015-Oct-23 13:33N 37°49' W 122°25'0 0.0
2015-Oct-23 12:33N 37°49' W 122°25'0 0.0
2015-Oct-23 11:33N 37°49' W 122°25'0 0.0
2015-Oct-23 10:33N 37°49' W 122°25'0 0.0
2015-Oct-23 09:33N 37°49' W 122°25'0 0.0
2015-Oct-23 08:33N 37°49' W 122°25'0 0.0
2015-Oct-23 07:33N 37°49' W 122°25'0 0.0
2015-Oct-23 06:33N 37°49' W 122°25'0 0.0
2015-Oct-23 05:33N 37°49' W 122°25'0 0.0
2015-Oct-23 04:33N 37°49' W 122°25'0 0.0
2015-Oct-23 03:33N 37°49' W 122°25'0 0.0
2015-Oct-23 02:33N 37°49' W 122°25'0 0.0
2015-Oct-23 01:33N 37°49' W 122°25'0 0.0
2015-Oct-23 00:33N 37°49' W 122°25'0 0.0
2015-Oct-22 23:34N 37°49' W 122°25'3 2.8
2015-Oct-22 22:34N 37°49' W 122°28'3 2.8
2015-Oct-22 21:34N 37°49' W 122°25'3 3.2
2015-Oct-22 20:34N 37°49' W 122°29'3 2.8
2015-Oct-22 19:34N 37°50' W 122°25'1 1.1
2015-Oct-22 18:33N 37°49' W 122°25'3 3.2
2015-Oct-22 17:34N 37°49' W 122°29'3 3.1
2015-Oct-22 16:32N 37°49' W 122°25'0 0.0
2015-Oct-22 15:33N 37°49' W 122°25'0 0.0
2015-Oct-22 14:32N 37°49' W 122°25'0 0.0
2015-Oct-22 13:32N 37°49' W 122°25'0 0.0
2015-Oct-22 12:32N 37°49' W 122°25'0 0.0
2015-Oct-22 11:32N 37°49' W 122°25'0 0.0
2015-Oct-22 10:32N 37°49' W 122°25'0 0.0
2015-Oct-22 09:32N 37°49' W 122°25'0 0.0
2015-Oct-22 08:32N 37°49' W 122°25'0 0.0
2015-Oct-22 07:32N 37°49' W 122°25'0 0.0
2015-Oct-22 06:32N 37°49' W 122°25'0 0.0
2015-Oct-22 05:32N 37°49' W 122°25'0 0.0
2015-Oct-22 04:32N 37°49' W 122°25'0 0.0
2015-Oct-22 03:32N 37°49' W 122°25'0 0.0
2015-Oct-22 02:32N 37°49' W 122°25'0 0.0
2015-Oct-22 01:29N 37°49' W 122°25'0 0.0
2015-Oct-22 00:32N 37°49' W 122°25'0 0.2
2015-Oct-21 23:34N 37°49' W 122°25'3 2.5
2015-Oct-21 22:33N 37°49' W 122°28'3 2.5
2015-Oct-21 21:33N 37°49' W 122°25'3 2.7
2015-Oct-21 20:33N 37°49' W 122°28'4 3.7
2015-Oct-21 19:33N 37°49' W 122°23'1 1.0
2015-Oct-21 18:33N 37°49' W 122°25'3 2.7
2015-Oct-21 17:33N 37°49' W 122°28'3 0.1
2015-Oct-19 20:29N 37°49' W 122°25'3 3.1
2015-Oct-19 19:33N 37°51' W 122°27'1 1.4
2015-Oct-19 18:33N 37°51' W 122°29'4 4.2
2015-Oct-19 17:33N 37°49' W 122°25'0 0.0
2015-Oct-19 16:33N 37°49' W 122°25'0 0.0
2015-Oct-19 15:30N 37°49' W 122°25'0 0.0
2015-Oct-19 14:29N 37°49' W 122°25'0 0.0
2015-Oct-19 13:32N 37°49' W 122°25'0 0.0
2015-Oct-19 12:33N 37°49' W 122°25'0 0.0
2015-Oct-19 11:32N 37°49' W 122°25'0 0.0
2015-Oct-19 10:30N 37°49' W 122°25'0 0.0
2015-Oct-19 09:33N 37°49' W 122°25'0 0.0
2015-Oct-19 08:33N 37°49' W 122°25'0 0.0
2015-Oct-19 07:32N 37°49' W 122°25'0 0.0
2015-Oct-19 06:32N 37°49' W 122°25'0 0.0
2015-Oct-19 05:29N 37°49' W 122°25'0 0.0
2015-Oct-19 04:29N 37°49' W 122°25'0 0.0
2015-Oct-19 03:29N 37°49' W 122°25'0 0.0
2015-Oct-19 02:32N 37°49' W 122°25'0 0.0
2015-Oct-19 01:32N 37°49' W 122°25'0 0.0
2015-Oct-19 00:32N 37°49' W 122°25'0 0.1
2015-Oct-18 23:33N 37°49' W 122°25'3 2.8
2015-Oct-18 22:33N 37°49' W 122°28'3 2.8
2015-Oct-18 21:31N 37°49' W 122°25'2 2.6
2015-Oct-18 20:33N 37°49' W 122°28'4 3.6
2015-Oct-18 19:33N 37°48' W 122°23'1 1.2
2015-Oct-18 18:33N 37°49' W 122°25'3 2.7
2015-Oct-18 17:33N 37°49' W 122°28'3 2.5
2015-Oct-18 16:27N 37°49' W 122°25'0 0.0
2015-Oct-18 15:30N 37°49' W 122°25'0 0.0
2015-Oct-18 14:33N 37°49' W 122°25'0 0.0
2015-Oct-18 13:33N 37°49' W 122°25'0 0.0
2015-Oct-18 12:33N 37°49' W 122°25'0 0.0
2015-Oct-18 11:33N 37°49' W 122°25'0 0.0
2015-Oct-18 10:33N 37°49' W 122°25'0 0.0
2015-Oct-18 09:33N 37°49' W 122°25'0 0.0
2015-Oct-18 08:33N 37°49' W 122°25'0 0.0
2015-Oct-18 07:30N 37°49' W 122°25'1 0.9
2015-Oct-18 06:33N 37°48' W 122°24'1 1.2
2015-Oct-18 05:34N 37°49' W 122°23'4 4.4
2015-Oct-18 04:33N 37°50' W 122°28'3 2.9
2015-Oct-18 03:33N 37°49' W 122°25'0 0.0
2015-Oct-18 02:33N 37°49' W 122°25'0 0.0
2015-Oct-18 01:34N 37°49' W 122°25'0 0.0
2015-Oct-18 00:33N 37°49' W 122°25'0 0.1
2015-Oct-17 23:33N 37°49' W 122°25'3 2.6
2015-Oct-17 22:34N 37°49' W 122°28'3 2.7
2015-Oct-17 21:33N 37°49' W 122°25'2 2.2
2015-Oct-17 20:33N 37°49' W 122°27'3 2.6
2015-Oct-17 19:33N 37°49' W 122°24'1 0.7
2015-Oct-17 18:33N 37°49' W 122°25'2 2.2
2015-Oct-17 17:33N 37°49' W 122°27'2 2.3
2015-Oct-17 16:34N 37°49' W 122°25'0 0.0
2015-Oct-17 15:34N 37°49' W 122°25'0 0.0
2015-Oct-17 14:33N 37°49' W 122°25'0 0.0
2015-Oct-17 13:34N 37°49' W 122°25'0 0.0
2015-Oct-17 12:34N 37°49' W 122°25'0 0.0
2015-Oct-17 11:34N 37°49' W 122°25'0 0.0
2015-Oct-17 10:34N 37°49' W 122°25'0 0.0
2015-Oct-17 09:33N 37°49' W 122°25'0 0.0
2015-Oct-17 08:34N 37°49' W 122°25'0 0.0
2015-Oct-17 07:34N 37°49' W 122°25'0 0.0
2015-Oct-17 06:33N 37°49' W 122°25'0 0.0
2015-Oct-17 05:34N 37°49' W 122°25'0 0.0
2015-Oct-17 04:34N 37°49' W 122°25'0 0.0
2015-Oct-17 03:34N 37°49' W 122°25'0 0.0
2015-Oct-17 02:34N 37°49' W 122°25'0 0.0
2015-Oct-17 01:33N 37°49' W 122°25'0 0.0
2015-Oct-17 00:34N 37°49' W 122°25'0 0.1
2015-Oct-16 23:34N 37°49' W 122°25'3 3.2
2015-Oct-16 22:34N 37°49' W 122°29'3 3.2
2015-Oct-16 21:33N 37°49' W 122°25'3 2.7
2015-Oct-16 20:33N 37°49' W 122°28'4 3.5
2015-Oct-16 19:34N 37°49' W 122°24'1 0.9
2015-Oct-16 18:33N 37°49' W 122°25'3 2.5
2015-Oct-16 17:33N 37°49' W 122°28'  

Dump ship's entire track history